sensor_id;sensor_type;location;lat;lon;timestamp;P1;durP1;ratioP1;P2;durP2;ratioP2
22378;SDS011;11357;49.990;7.370;2022-12-29T00:01:18;134.50;;;117.33;;
22378;SDS011;11357;49.990;7.370;2022-12-29T00:03:47;1286.27;;;660.60;;
22378;SDS011;11357;49.990;7.370;2022-12-29T00:06:12;907.33;;;522.13;;
22378;SDS011;11357;49.990;7.370;2022-12-29T00:08:38;1751.13;;;878.27;;
22378;SDS011;11357;49.990;7.370;2022-12-29T00:11:05;565.07;;;467.60;;
22378;SDS011;11357;49.990;7.370;2022-12-29T00:13:35;1999.90;;;999.90;;
22378;SDS011;11357;49.990;7.370;2022-12-29T00:16:20;1361.87;;;668.83;;
22378;SDS011;11357;49.990;7.370;2022-12-29T00:18:46;1957.47;;;776.67;;
22378;SDS011;11357;49.990;7.370;2022-12-29T00:21:16;1649.90;;;617.57;;
22378;SDS011;11357;49.990;7.370;2022-12-29T00:24:02;899.43;;;447.10;;
22378;SDS011;11357;49.990;7.370;2022-12-29T00:26:47;1748.33;;;804.03;;
22378;SDS011;11357;49.990;7.370;2022-12-29T00:29:54;1999.90;;;999.90;;
22378;SDS011;11357;49.990;7.370;2022-12-29T00:32:38;182.23;;;165.60;;
22378;SDS011;11357;49.990;7.370;2022-12-29T00:35:33;1853.20;;;777.03;;
22378;SDS011;11357;49.990;7.370;2022-12-29T00:38:05;1261.13;;;595.50;;
22378;SDS011;11357;49.990;7.370;2022-12-29T00:40:50;1404.67;;;619.17;;
22378;SDS011;11357;49.990;7.370;2022-12-29T00:43:35;860.13;;;436.97;;
22378;SDS011;11357;49.990;7.370;2022-12-29T00:46:19;573.40;;;498.03;;
22378;SDS011;11357;49.990;7.370;2022-12-29T00:48:45;1898.73;;;737.27;;
22378;SDS011;11357;49.990;7.370;2022-12-29T00:51:29;645.10;;;460.53;;
22378;SDS011;11357;49.990;7.370;2022-12-29T00:53:54;1553.50;;;795.30;;
22378;SDS011;11357;49.990;7.370;2022-12-29T00:56:20;1712.63;;;591.83;;
22378;SDS011;11357;49.990;7.370;2022-12-29T00:58:46;786.00;;;413.33;;
22378;SDS011;11357;49.990;7.370;2022-12-29T01:01:11;1373.70;;;684.40;;
22378;SDS011;11357;49.990;7.370;2022-12-29T01:03:37;731.97;;;419.80;;
22378;SDS011;11357;49.990;7.370;2022-12-29T01:06:04;1999.90;;;822.77;;
22378;SDS011;11357;49.990;7.370;2022-12-29T01:08:32;542.40;;;393.43;;
22378;SDS011;11357;49.990;7.370;2022-12-29T01:11:02;1102.87;;;562.43;;
22378;SDS011;11357;49.990;7.370;2022-12-29T01:13:31;1415.90;;;629.47;;
22378;SDS011;11357;49.990;7.370;2022-12-29T01:15:57;354.67;;;223.93;;
22378;SDS011;11357;49.990;7.370;2022-12-29T01:18:23;1982.33;;;850.50;;
22378;SDS011;11357;49.990;7.370;2022-12-29T01:20:50;1328.43;;;636.07;;
22378;SDS011;11357;49.990;7.370;2022-12-29T01:23:16;914.43;;;417.27;;
22378;SDS011;11357;49.990;7.370;2022-12-29T01:25:42;401.50;;;244.30;;
22378;SDS011;11357;49.990;7.370;2022-12-29T01:28:08;1297.13;;;512.47;;
22378;SDS011;11357;49.990;7.370;2022-12-29T01:30:34;943.73;;;520.67;;
22378;SDS011;11357;49.990;7.370;2022-12-29T01:33:00;1426.63;;;785.43;;
22378;SDS011;11357;49.990;7.370;2022-12-29T01:35:26;1580.07;;;609.30;;
22378;SDS011;11357;49.990;7.370;2022-12-29T01:37:52;929.03;;;535.40;;
22378;SDS011;11357;49.990;7.370;2022-12-29T01:40:18;645.57;;;477.17;;
22378;SDS011;11357;49.990;7.370;2022-12-29T01:42:44;1371.67;;;676.37;;
22378;SDS011;11357;49.990;7.370;2022-12-29T01:45:11;1405.27;;;623.83;;
22378;SDS011;11357;49.990;7.370;2022-12-29T01:47:52;1997.17;;;779.40;;
22378;SDS011;11357;49.990;7.370;2022-12-29T01:52:54;1349.93;;;696.97;;
22378;SDS011;11357;49.990;7.370;2022-12-29T01:55:26;1130.10;;;621.93;;
22378;SDS011;11357;49.990;7.370;2022-12-29T01:57:53;1686.23;;;828.00;;
22378;SDS011;11357;49.990;7.370;2022-12-29T02:00:24;1659.57;;;651.20;;
22378;SDS011;11357;49.990;7.370;2022-12-29T02:02:53;1145.73;;;579.00;;
22378;SDS011;11357;49.990;7.370;2022-12-29T02:07:59;741.50;;;612.63;;
22378;SDS011;11357;49.990;7.370;2022-12-29T02:10:26;468.90;;;292.70;;
22378;SDS011;11357;49.990;7.370;2022-12-29T02:12:55;442.33;;;307.40;;
22378;SDS011;11357;49.990;7.370;2022-12-29T02:15:23;1999.90;;;806.03;;
22378;SDS011;11357;49.990;7.370;2022-12-29T02:32:00;1165.30;;;610.43;;
22378;SDS011;11357;49.990;7.370;2022-12-29T02:34:55;648.50;;;411.33;;
22378;SDS011;11357;49.990;7.370;2022-12-29T02:37:59;1333.60;;;701.20;;
22378;SDS011;11357;49.990;7.370;2022-12-29T02:43:24;1113.60;;;652.00;;
22378;SDS011;11357;49.990;7.370;2022-12-29T02:46:21;885.83;;;498.73;;
22378;SDS011;11357;49.990;7.370;2022-12-29T02:52:06;49.93;;;37.27;;
22378;SDS011;11357;49.990;7.370;2022-12-29T02:54:26;1281.00;;;705.27;;
22378;SDS011;11357;49.990;7.370;2022-12-29T02:57:12;1293.80;;;705.43;;
22378;SDS011;11357;49.990;7.370;2022-12-29T02:59:37;628.10;;;526.03;;
22378;SDS011;11357;49.990;7.370;2022-12-29T03:19:07;636.80;;;456.13;;
22378;SDS011;11357;49.990;7.370;2022-12-29T03:21:59;629.67;;;571.67;;
22378;SDS011;11357;49.990;7.370;2022-12-29T03:24:48;399.37;;;360.70;;
22378;SDS011;11357;49.990;7.370;2022-12-29T03:27:27;486.10;;;439.10;;
22378;SDS011;11357;49.990;7.370;2022-12-29T03:30:05;132.30;;;122.17;;
22378;SDS011;11357;49.990;7.370;2022-12-29T03:32:33;1099.77;;;798.67;;
22378;SDS011;11357;49.990;7.370;2022-12-29T03:35:03;977.57;;;680.73;;
22378;SDS011;11357;49.990;7.370;2022-12-29T03:37:41;494.20;;;447.87;;
22378;SDS011;11357;49.990;7.370;2022-12-29T03:40:12;327.97;;;295.97;;
22378;SDS011;11357;49.990;7.370;2022-12-29T03:42:38;386.97;;;354.73;;
22378;SDS011;11357;49.990;7.370;2022-12-29T03:45:06;766.97;;;165.60;;
22378;SDS011;11357;49.990;7.370;2022-12-29T03:47:32;354.63;;;319.50;;
22378;SDS011;11357;49.990;7.370;2022-12-29T03:49:58;127.63;;;107.00;;
22378;SDS011;11357;49.990;7.370;2022-12-29T03:52:24;930.53;;;550.67;;
22378;SDS011;11357;49.990;7.370;2022-12-29T03:54:49;1494.43;;;485.57;;
22378;SDS011;11357;49.990;7.370;2022-12-29T03:57:15;1999.90;;;760.87;;
22378;SDS011;11357;49.990;7.370;2022-12-29T03:59:41;1689.53;;;700.73;;
22378;SDS011;11357;49.990;7.370;2022-12-29T04:02:06;1485.40;;;643.93;;
22378;SDS011;11357;49.990;7.370;2022-12-29T04:04:32;736.73;;;596.27;;
22378;SDS011;11357;49.990;7.370;2022-12-29T04:06:58;709.87;;;543.83;;
22378;SDS011;11357;49.990;7.370;2022-12-29T04:09:24;417.87;;;166.17;;
22378;SDS011;11357;49.990;7.370;2022-12-29T04:11:49;853.67;;;535.10;;
22378;SDS011;11357;49.990;7.370;2022-12-29T04:14:15;789.60;;;581.67;;
22378;SDS011;11357;49.990;7.370;2022-12-29T04:16:41;401.83;;;365.53;;
22378;SDS011;11357;49.990;7.370;2022-12-29T04:19:07;469.23;;;423.33;;
22378;SDS011;11357;49.990;7.370;2022-12-29T04:21:33;329.60;;;299.03;;
22378;SDS011;11357;49.990;7.370;2022-12-29T04:23:59;455.23;;;417.47;;
22378;SDS011;11357;49.990;7.370;2022-12-29T04:26:25;465.17;;;426.53;;
22378;SDS011;11357;49.990;7.370;2022-12-29T04:28:51;258.10;;;153.47;;
22378;SDS011;11357;49.990;7.370;2022-12-29T04:31:17;462.93;;;424.07;;
22378;SDS011;11357;49.990;7.370;2022-12-29T04:33:42;258.37;;;231.40;;
22378;SDS011;11357;49.990;7.370;2022-12-29T04:36:08;374.53;;;344.30;;
22378;SDS011;11357;49.990;7.370;2022-12-29T04:38:34;162.73;;;148.70;;
22378;SDS011;11357;49.990;7.370;2022-12-29T04:41:00;661.00;;;431.17;;
22378;SDS011;11357;49.990;7.370;2022-12-29T04:43:27;512.40;;;461.37;;
22378;SDS011;11357;49.990;7.370;2022-12-29T04:45:52;470.17;;;270.17;;
22378;SDS011;11357;49.990;7.370;2022-12-29T04:48:18;529.47;;;469.67;;
22378;SDS011;11357;49.990;7.370;2022-12-29T04:50:46;636.20;;;456.93;;
22378;SDS011;11357;49.990;7.370;2022-12-29T04:53:13;1103.60;;;606.03;;
22378;SDS011;11357;49.990;7.370;2022-12-29T04:55:40;373.57;;;307.60;;
22378;SDS011;11357;49.990;7.370;2022-12-29T04:58:06;691.93;;;539.00;;
22378;SDS011;11357;49.990;7.370;2022-12-29T05:00:31;1349.63;;;690.43;;
22378;SDS011;11357;49.990;7.370;2022-12-29T05:02:57;263.97;;;238.87;;
22378;SDS011;11357;49.990;7.370;2022-12-29T05:05:23;97.23;;;63.73;;
22378;SDS011;11357;49.990;7.370;2022-12-29T05:07:49;1258.83;;;533.53;;
22378;SDS011;11357;49.990;7.370;2022-12-29T05:10:14;422.70;;;254.43;;
22378;SDS011;11357;49.990;7.370;2022-12-29T05:12:40;750.77;;;534.40;;
22378;SDS011;11357;49.990;7.370;2022-12-29T05:15:06;667.83;;;308.17;;
22378;SDS011;11357;49.990;7.370;2022-12-29T05:17:33;1204.33;;;765.53;;
22378;SDS011;11357;49.990;7.370;2022-12-29T05:19:59;259.87;;;231.83;;
22378;SDS011;11357;49.990;7.370;2022-12-29T05:22:24;856.30;;;589.60;;
22378;SDS011;11357;49.990;7.370;2022-12-29T05:24:50;159.63;;;144.53;;
22378;SDS011;11357;49.990;7.370;2022-12-29T05:27:16;479.33;;;335.47;;
22378;SDS011;11357;49.990;7.370;2022-12-29T05:29:42;1304.53;;;847.20;;
22378;SDS011;11357;49.990;7.370;2022-12-29T05:32:07;570.23;;;496.63;;
22378;SDS011;11357;49.990;7.370;2022-12-29T05:34:33;234.53;;;214.33;;
22378;SDS011;11357;49.990;7.370;2022-12-29T05:36:59;1151.87;;;530.17;;
22378;SDS011;11357;49.990;7.370;2022-12-29T05:39:25;516.87;;;414.03;;
22378;SDS011;11357;49.990;7.370;2022-12-29T05:41:50;524.30;;;470.63;;
22378;SDS011;11357;49.990;7.370;2022-12-29T05:44:16;57.17;;;46.37;;
22378;SDS011;11357;49.990;7.370;2022-12-29T05:46:42;60.87;;;55.87;;
22378;SDS011;11357;49.990;7.370;2022-12-29T05:49:07;714.73;;;631.97;;
22378;SDS011;11357;49.990;7.370;2022-12-29T05:51:33;695.63;;;619.83;;
22378;SDS011;11357;49.990;7.370;2022-12-29T05:53:59;799.93;;;573.90;;
22378;SDS011;11357;49.990;7.370;2022-12-29T05:56:24;505.20;;;418.80;;
22378;SDS011;11357;49.990;7.370;2022-12-29T05:58:50;1071.10;;;327.77;;
22378;SDS011;11357;49.990;7.370;2022-12-29T06:01:16;1928.50;;;821.40;;
22378;SDS011;11357;49.990;7.370;2022-12-29T06:03:41;1575.00;;;599.47;;
22378;SDS011;11357;49.990;7.370;2022-12-29T06:06:07;1999.90;;;999.90;;
22378;SDS011;11357;49.990;7.370;2022-12-29T06:08:33;1432.90;;;802.50;;
22378;SDS011;11357;49.990;7.370;2022-12-29T06:10:59;1261.87;;;543.93;;
22378;SDS011;11357;49.990;7.370;2022-12-29T06:13:25;1103.10;;;484.67;;
22378;SDS011;11357;49.990;7.370;2022-12-29T06:15:50;492.83;;;252.87;;
22378;SDS011;11357;49.990;7.370;2022-12-29T06:18:16;450.90;;;339.93;;
22378;SDS011;11357;49.990;7.370;2022-12-29T06:20:42;1691.70;;;764.40;;
22378;SDS011;11357;49.990;7.370;2022-12-29T06:23:08;1794.63;;;841.07;;
22378;SDS011;11357;49.990;7.370;2022-12-29T06:25:34;1033.67;;;526.53;;
22378;SDS011;11357;49.990;7.370;2022-12-29T06:28:01;1999.90;;;999.90;;
22378;SDS011;11357;49.990;7.370;2022-12-29T06:30:27;1320.07;;;567.80;;
22378;SDS011;11357;49.990;7.370;2022-12-29T06:32:53;1397.17;;;577.67;;
22378;SDS011;11357;49.990;7.370;2022-12-29T06:35:19;997.30;;;490.10;;
22378;SDS011;11357;49.990;7.370;2022-12-29T06:37:47;1038.47;;;649.07;;
22378;SDS011;11357;49.990;7.370;2022-12-29T06:40:13;1107.37;;;415.90;;
22378;SDS011;11357;49.990;7.370;2022-12-29T06:42:39;1999.90;;;775.03;;
22378;SDS011;11357;49.990;7.370;2022-12-29T06:45:05;614.97;;;304.30;;
22378;SDS011;11357;49.990;7.370;2022-12-29T06:47:32;704.80;;;604.47;;
22378;SDS011;11357;49.990;7.370;2022-12-29T06:49:59;214.57;;;195.13;;
22378;SDS011;11357;49.990;7.370;2022-12-29T06:52:25;1341.13;;;544.87;;
22378;SDS011;11357;49.990;7.370;2022-12-29T06:54:50;212.50;;;192.67;;
22378;SDS011;11357;49.990;7.370;2022-12-29T06:57:16;314.80;;;158.57;;
22378;SDS011;11357;49.990;7.370;2022-12-29T06:59:42;834.00;;;609.13;;
22378;SDS011;11357;49.990;7.370;2022-12-29T07:02:11;146.37;;;135.67;;
22378;SDS011;11357;49.990;7.370;2022-12-29T07:04:39;606.87;;;537.27;;
22378;SDS011;11357;49.990;7.370;2022-12-29T07:07:04;246.63;;;220.77;;
22378;SDS011;11357;49.990;7.370;2022-12-29T07:09:30;139.47;;;121.70;;
22378;SDS011;11357;49.990;7.370;2022-12-29T07:11:56;392.57;;;353.27;;
22378;SDS011;11357;49.990;7.370;2022-12-29T07:14:22;579.93;;;358.63;;
22378;SDS011;11357;49.990;7.370;2022-12-29T07:16:48;747.13;;;541.33;;
22378;SDS011;11357;49.990;7.370;2022-12-29T07:19:13;157.83;;;145.27;;
22378;SDS011;11357;49.990;7.370;2022-12-29T07:21:39;126.23;;;86.47;;
22378;SDS011;11357;49.990;7.370;2022-12-29T07:24:05;71.13;;;66.50;;
22378;SDS011;11357;49.990;7.370;2022-12-29T07:26:31;106.33;;;96.00;;
22378;SDS011;11357;49.990;7.370;2022-12-29T07:28:56;206.83;;;183.47;;
22378;SDS011;11357;49.990;7.370;2022-12-29T07:31:22;802.77;;;576.77;;
22378;SDS011;11357;49.990;7.370;2022-12-29T07:33:48;667.73;;;511.70;;
22378;SDS011;11357;49.990;7.370;2022-12-29T07:36:15;78.50;;;73.20;;
22378;SDS011;11357;49.990;7.370;2022-12-29T07:38:41;692.03;;;397.87;;
22378;SDS011;11357;49.990;7.370;2022-12-29T07:41:07;430.07;;;384.97;;
22378;SDS011;11357;49.990;7.370;2022-12-29T07:43:33;687.40;;;239.37;;
22378;SDS011;11357;49.990;7.370;2022-12-29T07:45:59;48.43;;;45.27;;
22378;SDS011;11357;49.990;7.370;2022-12-29T07:48:25;310.77;;;230.63;;
22378;SDS011;11357;49.990;7.370;2022-12-29T07:50:51;248.83;;;228.43;;
22378;SDS011;11357;49.990;7.370;2022-12-29T07:53:17;305.03;;;254.83;;
22378;SDS011;11357;49.990;7.370;2022-12-29T07:55:44;432.57;;;294.37;;
22378;SDS011;11357;49.990;7.370;2022-12-29T07:58:09;254.60;;;168.47;;
22378;SDS011;11357;49.990;7.370;2022-12-29T08:00:35;1671.67;;;593.77;;
22378;SDS011;11357;49.990;7.370;2022-12-29T08:03:02;126.77;;;54.27;;
22378;SDS011;11357;49.990;7.370;2022-12-29T08:05:30;1550.70;;;643.27;;
22378;SDS011;11357;49.990;7.370;2022-12-29T08:07:57;1447.13;;;717.87;;
22378;SDS011;11357;49.990;7.370;2022-12-29T08:10:22;1176.30;;;687.60;;
22378;SDS011;11357;49.990;7.370;2022-12-29T08:12:48;811.80;;;535.57;;
22378;SDS011;11357;49.990;7.370;2022-12-29T08:15:14;557.73;;;309.10;;
22378;SDS011;11357;49.990;7.370;2022-12-29T08:17:40;616.03;;;546.53;;
22378;SDS011;11357;49.990;7.370;2022-12-29T08:20:06;1214.00;;;528.60;;
22378;SDS011;11357;49.990;7.370;2022-12-29T08:22:32;266.20;;;216.10;;
22378;SDS011;11357;49.990;7.370;2022-12-29T08:24:58;720.33;;;472.43;;
22378;SDS011;11357;49.990;7.370;2022-12-29T08:27:24;1295.33;;;637.80;;
22378;SDS011;11357;49.990;7.370;2022-12-29T08:29:51;995.27;;;634.33;;
22378;SDS011;11357;49.990;7.370;2022-12-29T08:32:17;1091.90;;;706.50;;
22378;SDS011;11357;49.990;7.370;2022-12-29T08:34:43;1656.43;;;652.03;;
22378;SDS011;11357;49.990;7.370;2022-12-29T08:37:09;933.27;;;555.57;;
22378;SDS011;11357;49.990;7.370;2022-12-29T08:39:35;967.17;;;552.87;;
22378;SDS011;11357;49.990;7.370;2022-12-29T08:42:00;1092.83;;;635.67;;
22378;SDS011;11357;49.990;7.370;2022-12-29T08:44:26;1315.83;;;763.00;;
22378;SDS011;11357;49.990;7.370;2022-12-29T08:46:52;1578.20;;;681.60;;
22378;SDS011;11357;49.990;7.370;2022-12-29T08:49:17;575.30;;;512.87;;
22378;SDS011;11357;49.990;7.370;2022-12-29T08:51:43;1192.47;;;611.20;;
22378;SDS011;11357;49.990;7.370;2022-12-29T08:54:09;1302.77;;;778.77;;
22378;SDS011;11357;49.990;7.370;2022-12-29T08:56:35;847.20;;;359.17;;
22378;SDS011;11357;49.990;7.370;2022-12-29T08:59:01;1047.00;;;766.33;;
22378;SDS011;11357;49.990;7.370;2022-12-29T09:01:26;424.33;;;355.00;;
22378;SDS011;11357;49.990;7.370;2022-12-29T09:03:53;624.17;;;481.50;;
22378;SDS011;11357;49.990;7.370;2022-12-29T09:06:19;1764.83;;;725.60;;
22378;SDS011;11357;49.990;7.370;2022-12-29T09:08:45;353.63;;;264.83;;
22378;SDS011;11357;49.990;7.370;2022-12-29T09:13:37;1210.63;;;564.80;;
22378;SDS011;11357;49.990;7.370;2022-12-29T09:16:03;1329.67;;;571.00;;
22378;SDS011;11357;49.990;7.370;2022-12-29T09:18:29;1208.30;;;594.33;;
22378;SDS011;11357;49.990;7.370;2022-12-29T09:20:56;1637.83;;;834.00;;
22378;SDS011;11357;49.990;7.370;2022-12-29T09:23:26;560.03;;;495.40;;
22378;SDS011;11357;49.990;7.370;2022-12-29T09:25:53;1101.40;;;637.27;;
22378;SDS011;11357;49.990;7.370;2022-12-29T09:28:19;1096.37;;;725.47;;
22378;SDS011;11357;49.990;7.370;2022-12-29T09:30:45;1351.53;;;775.33;;
22378;SDS011;11357;49.990;7.370;2022-12-29T09:33:11;1290.57;;;601.03;;
22378;SDS011;11357;49.990;7.370;2022-12-29T09:35:37;804.90;;;607.00;;
22378;SDS011;11357;49.990;7.370;2022-12-29T09:38:09;706.43;;;565.90;;
22378;SDS011;11357;49.990;7.370;2022-12-29T09:40:35;1776.40;;;888.67;;
22378;SDS011;11357;49.990;7.370;2022-12-29T09:45:46;775.57;;;196.20;;
22378;SDS011;11357;49.990;7.370;2022-12-29T09:48:17;948.43;;;640.37;;
22378;SDS011;11357;49.990;7.370;2022-12-29T09:50:50;375.30;;;317.20;;
22378;SDS011;11357;49.990;7.370;2022-12-29T09:53:40;551.00;;;501.67;;
22378;SDS011;11357;49.990;7.370;2022-12-29T09:56:16;256.23;;;236.73;;
22378;SDS011;11357;49.990;7.370;2022-12-29T09:59:08;192.63;;;177.93;;
22378;SDS011;11357;49.990;7.370;2022-12-29T10:01:53;240.70;;;223.00;;
22378;SDS011;11357;49.990;7.370;2022-12-29T10:04:28;107.37;;;100.37;;
22378;SDS011;11357;49.990;7.370;2022-12-29T10:06:58;244.37;;;225.57;;
22378;SDS011;11357;49.990;7.370;2022-12-29T10:09:52;212.47;;;195.43;;
22378;SDS011;11357;49.990;7.370;2022-12-29T10:15:17;24.17;;;22.87;;
22378;SDS011;11357;49.990;7.370;2022-12-29T10:26:01;58.93;;;55.57;;
22378;SDS011;11357;49.990;7.370;2022-12-29T10:28:34;101.23;;;95.90;;
22378;SDS011;11357;49.990;7.370;2022-12-29T10:31:07;63.80;;;57.23;;
22378;SDS011;11357;49.990;7.370;2022-12-29T10:33:39;75.97;;;71.63;;
22378;SDS011;11357;49.990;7.370;2022-12-29T10:36:15;30.10;;;27.57;;
22378;SDS011;11357;49.990;7.370;2022-12-29T10:44:45;27.07;;;25.07;;
22378;SDS011;11357;49.990;7.370;2022-12-29T10:47:13;3.87;;;3.30;;
22378;SDS011;11357;49.990;7.370;2022-12-29T10:49:42;76.10;;;70.77;;
22378;SDS011;11357;49.990;7.370;2022-12-29T10:52:11;149.23;;;139.83;;
22378;SDS011;11357;49.990;7.370;2022-12-29T10:54:59;15.60;;;14.40;;
22378;SDS011;11357;49.990;7.370;2022-12-29T10:59:59;4.77;;;3.20;;
22378;SDS011;11357;49.990;7.370;2022-12-29T11:07:29;10.33;;;3.87;;
22378;SDS011;11357;49.990;7.370;2022-12-29T11:13:15;22.17;;;20.67;;
22378;SDS011;11357;49.990;7.370;2022-12-29T11:15:47;5.30;;;3.13;;
22378;SDS011;11357;49.990;7.370;2022-12-29T11:21:10;16.87;;;15.73;;
22378;SDS011;11357;49.990;7.370;2022-12-29T11:24:01;13.40;;;12.43;;
22378;SDS011;11357;49.990;7.370;2022-12-29T11:26:30;51.73;;;48.00;;
22378;SDS011;11357;49.990;7.370;2022-12-29T11:29:30;49.97;;;47.07;;
22378;SDS011;11357;49.990;7.370;2022-12-29T11:32:21;31.47;;;29.53;;
22378;SDS011;11357;49.990;7.370;2022-12-29T11:34:51;168.57;;;158.07;;
22378;SDS011;11357;49.990;7.370;2022-12-29T11:42:34;32.97;;;31.27;;
22378;SDS011;11357;49.990;7.370;2022-12-29T11:45:15;14.00;;;13.07;;
22378;SDS011;11357;49.990;7.370;2022-12-29T11:47:42;64.70;;;60.00;;
22378;SDS011;11357;49.990;7.370;2022-12-29T11:50:16;29.60;;;27.80;;
22378;SDS011;11357;49.990;7.370;2022-12-29T11:52:44;59.67;;;56.17;;
22378;SDS011;11357;49.990;7.370;2022-12-29T11:55:21;158.70;;;149.30;;
22378;SDS011;11357;49.990;7.370;2022-12-29T11:57:49;225.77;;;211.30;;
22378;SDS011;11357;49.990;7.370;2022-12-29T12:03:02;228.50;;;212.87;;
22378;SDS011;11357;49.990;7.370;2022-12-29T12:06:03;52.13;;;49.03;;
22378;SDS011;11357;49.990;7.370;2022-12-29T12:11:30;39.97;;;37.47;;
22378;SDS011;11357;49.990;7.370;2022-12-29T12:17:14;233.83;;;218.60;;
22378;SDS011;11357;49.990;7.370;2022-12-29T12:25:01;232.27;;;216.80;;
22378;SDS011;11357;49.990;7.370;2022-12-29T12:27:53;157.03;;;145.03;;
22378;SDS011;11357;49.990;7.370;2022-12-29T12:30:26;177.03;;;166.33;;
22378;SDS011;11357;49.990;7.370;2022-12-29T12:33:00;221.40;;;207.90;;
22378;SDS011;11357;49.990;7.370;2022-12-29T12:38:30;34.13;;;32.30;;
22378;SDS011;11357;49.990;7.370;2022-12-29T12:44:18;64.70;;;61.33;;
22378;SDS011;11357;49.990;7.370;2022-12-29T12:50:19;17.57;;;16.37;;
22378;SDS011;11357;49.990;7.370;2022-12-29T13:01:36;9.67;;;8.03;;
22378;SDS011;11357;49.990;7.370;2022-12-29T13:04:19;4.27;;;1.67;;
22378;SDS011;11357;49.990;7.370;2022-12-29T13:20:44;5.03;;;1.50;;
22378;SDS011;11357;49.990;7.370;2022-12-29T13:28:55;7.43;;;1.03;;
22378;SDS011;11357;49.990;7.370;2022-12-29T13:37:17;4.97;;;1.50;;
22378;SDS011;11357;49.990;7.370;2022-12-29T13:39:47;9.13;;;4.47;;
22378;SDS011;11357;49.990;7.370;2022-12-29T13:42:17;5.63;;;2.10;;
22378;SDS011;11357;49.990;7.370;2022-12-29T13:50:02;2.87;;;1.33;;
22378;SDS011;11357;49.990;7.370;2022-12-29T13:53:18;45.33;;;16.00;;
22378;SDS011;11357;49.990;7.370;2022-12-29T13:55:22;5.97;;;3.83;;
22378;SDS011;11357;49.990;7.370;2022-12-29T14:03:56;7.30;;;3.13;;
22378;SDS011;11357;49.990;7.370;2022-12-29T14:06:31;34.70;;;32.33;;
22378;SDS011;11357;49.990;7.370;2022-12-29T14:09:00;12.37;;;7.50;;
22378;SDS011;11357;49.990;7.370;2022-12-29T14:11:36;18.10;;;16.67;;
22378;SDS011;11357;49.990;7.370;2022-12-29T14:17:04;15.40;;;6.03;;
22378;SDS011;11357;49.990;7.370;2022-12-29T14:19:39;3.67;;;2.27;;
22378;SDS011;11357;49.990;7.370;2022-12-29T14:22:06;7.97;;;1.67;;
22378;SDS011;11357;49.990;7.370;2022-12-29T14:34:50;6.57;;;2.63;;
22378;SDS011;11357;49.990;7.370;2022-12-29T14:39:49;5.27;;;2.30;;
22378;SDS011;11357;49.990;7.370;2022-12-29T14:42:26;7.50;;;2.40;;
22378;SDS011;11357;49.990;7.370;2022-12-29T14:49:56;4.53;;;2.03;;
22378;SDS011;11357;49.990;7.370;2022-12-29T14:52:58;5.60;;;3.37;;
22378;SDS011;11357;49.990;7.370;2022-12-29T14:55:37;11.07;;;5.67;;
22378;SDS011;11357;49.990;7.370;2022-12-29T15:00:55;9.50;;;1.83;;
22378;SDS011;11357;49.990;7.370;2022-12-29T15:06:17;8.40;;;1.43;;
22378;SDS011;11357;49.990;7.370;2022-12-29T15:08:58;10.93;;;2.20;;
22378;SDS011;11357;49.990;7.370;2022-12-29T15:14:01;10.13;;;3.40;;
22378;SDS011;11357;49.990;7.370;2022-12-29T15:18:58;7.30;;;1.97;;
22378;SDS011;11357;49.990;7.370;2022-12-29T15:21:31;3.93;;;1.47;;
22378;SDS011;11357;49.990;7.370;2022-12-29T15:23:59;8.57;;;1.87;;
22378;SDS011;11357;49.990;7.370;2022-12-29T15:26:36;8.60;;;1.60;;
22378;SDS011;11357;49.990;7.370;2022-12-29T15:29:03;4.93;;;1.53;;
22378;SDS011;11357;49.990;7.370;2022-12-29T15:31:29;9.90;;;1.73;;
22378;SDS011;11357;49.990;7.370;2022-12-29T15:34:02;8.80;;;2.23;;
22378;SDS011;11357;49.990;7.370;2022-12-29T15:36:38;8.07;;;1.80;;
22378;SDS011;11357;49.990;7.370;2022-12-29T15:39:19;12.87;;;2.20;;
22378;SDS011;11357;49.990;7.370;2022-12-29T15:41:55;5.63;;;2.37;;
22378;SDS011;11357;49.990;7.370;2022-12-29T15:46:56;6.70;;;2.73;;
22378;SDS011;11357;49.990;7.370;2022-12-29T15:49:26;6.47;;;4.50;;
22378;SDS011;11357;49.990;7.370;2022-12-29T15:51:51;7.03;;;5.13;;
22378;SDS011;11357;49.990;7.370;2022-12-29T15:54:18;30.27;;;27.57;;
22378;SDS011;11357;49.990;7.370;2022-12-29T15:56:46;12.97;;;9.67;;
22378;SDS011;11357;49.990;7.370;2022-12-29T15:59:24;15.27;;;13.73;;
22378;SDS011;11357;49.990;7.370;2022-12-29T16:01:59;33.90;;;31.27;;
22378;SDS011;11357;49.990;7.370;2022-12-29T16:04:27;43.83;;;40.93;;
22378;SDS011;11357;49.990;7.370;2022-12-29T16:07:00;39.93;;;37.33;;
22378;SDS011;11357;49.990;7.370;2022-12-29T16:09:31;37.17;;;34.83;;
22378;SDS011;11357;49.990;7.370;2022-12-29T16:12:03;18.57;;;17.17;;
22378;SDS011;11357;49.990;7.370;2022-12-29T16:14:41;9.77;;;4.13;;
22378;SDS011;11357;49.990;7.370;2022-12-29T16:17:15;14.60;;;12.93;;
22378;SDS011;11357;49.990;7.370;2022-12-29T16:19:55;37.87;;;35.27;;
22378;SDS011;11357;49.990;7.370;2022-12-29T16:22:31;35.17;;;32.63;;
22378;SDS011;11357;49.990;7.370;2022-12-29T16:25:02;26.17;;;24.27;;
22378;SDS011;11357;49.990;7.370;2022-12-29T16:30:03;40.80;;;37.73;;
22378;SDS011;11357;49.990;7.370;2022-12-29T16:32:32;10.50;;;9.07;;
22378;SDS011;11357;49.990;7.370;2022-12-29T16:43:21;11.60;;;3.03;;
22378;SDS011;11357;49.990;7.370;2022-12-29T16:48:27;10.03;;;2.70;;
22378;SDS011;11357;49.990;7.370;2022-12-29T16:51:02;9.40;;;2.37;;
22378;SDS011;11357;49.990;7.370;2022-12-29T16:53:47;9.40;;;2.50;;
22378;SDS011;11357;49.990;7.370;2022-12-29T16:56:20;6.63;;;2.17;;
22378;SDS011;11357;49.990;7.370;2022-12-29T16:58:53;17.33;;;7.93;;
22378;SDS011;11357;49.990;7.370;2022-12-29T17:01:37;34.83;;;18.73;;
22378;SDS011;11357;49.990;7.370;2022-12-29T17:04:08;37.40;;;21.93;;
22378;SDS011;11357;49.990;7.370;2022-12-29T17:06:35;23.80;;;18.70;;
22378;SDS011;11357;49.990;7.370;2022-12-29T17:09:01;34.77;;;31.70;;
22378;SDS011;11357;49.990;7.370;2022-12-29T17:11:35;69.67;;;56.00;;
22378;SDS011;11357;49.990;7.370;2022-12-29T17:17:11;53.30;;;40.73;;
22378;SDS011;11357;49.990;7.370;2022-12-29T17:19:38;20.70;;;18.90;;
22378;SDS011;11357;49.990;7.370;2022-12-29T17:22:18;41.33;;;38.40;;
22378;SDS011;11357;49.990;7.370;2022-12-29T17:24:55;52.70;;;49.23;;
22378;SDS011;11357;49.990;7.370;2022-12-29T17:27:24;49.23;;;45.83;;
22378;SDS011;11357;49.990;7.370;2022-12-29T17:29:54;102.77;;;96.17;;
22378;SDS011;11357;49.990;7.370;2022-12-29T17:32:22;115.93;;;109.17;;
22378;SDS011;11357;49.990;7.370;2022-12-29T17:34:48;63.97;;;59.80;;
22378;SDS011;11357;49.990;7.370;2022-12-29T17:39:48;121.67;;;114.50;;
22378;SDS011;11357;49.990;7.370;2022-12-29T17:42:14;131.97;;;123.87;;
22378;SDS011;11357;49.990;7.370;2022-12-29T17:44:39;120.77;;;113.53;;
22378;SDS011;11357;49.990;7.370;2022-12-29T17:47:07;175.10;;;164.30;;